Observations
| Time | Sensor | AQI | SAQ | Temp °C | Hum % | Pres Pa | CO μg/m³ | H₂S μg/m³ | NO μg/m³ | NO₂ μg/m³ | O₃ μg/m³ | SO₂ μg/m³ | CO₂e PPM | VOC PPM | PM1 μg/m³ | PM2.5 μg/m³ | PM4 μg/m³ | PM10 μg/m³ | TPS µm |
|---|---|---|---|---|---|---|---|---|---|---|---|---|---|---|---|---|---|---|---|
| Thursday 13 August 2026 | |||||||||||||||||||
| 08:32 | Trim Market St | 2 | 25.6 | 62 | 57,292 | 0.06 | 0 | 1.03 | 10.25 | 34.15 | 0 | 1.43 | 3.91 | 8.87 | |||||
| 08:31 | Trim Market St | 2 | 25.5 | 63 | 57,263 | 0.06 | 0 | 1.08 | 9.59 | 28.84 | 0 | 1.43 | 3.4 | 4.85 | |||||
| 08:30 | Trim Market St | 2 | 25.4 | 63 | 57,231 | 0.05 | 0 | 1.2 | 10.47 | 23.91 | 0 | 1.43 | 3.89 | 5.52 | |||||
| 08:30 | Trim Patrick St | 1 | 24.7 | 65 | 16,947 | 0 | 0 | 1.43 | 7.85 | 26.38 | 6.28 | 5.43 | 10.57 | 11.63 | |||||
| 08:29 | Trim Market St | 2 | 25.3 | 63 | 57,193 | 0.08 | 0 | 1.25 | 12.2 | 23.63 | 0 | 1.43 | 3.88 | 5.52 | |||||
| 08:29 | Trim Patrick St | 1 | 24.6 | 65 | 22,130 | 0 | 0 | 1.45 | 11.05 | 24.14 | 6.51 | 3.71 | 8.37 | 9.2 | |||||
| 08:28 | Trim Market St | 2 | 25.3 | 63 | 57,156 | 0.08 | 0 | 1.24 | 12.38 | 31.67 | 0 | 2.85 | 4.37 | 6.19 | |||||
| 08:28 | Trim Patrick St | 1 | 24.6 | 65 | 27,032 | 0 | 0 | 1.59 | 10.07 | 25.44 | 6.71 | 3.71 | 9.1 | 10.01 | |||||
| 08:27 | Trim Market St | 2 | 25.2 | 63 | 57,122 | 0.07 | 0 | 1.29 | 12.45 | 15.2 | 0 | 2.85 | 4.86 | 6.86 | |||||
| 08:27 | Trim Patrick St | 1 | 24.5 | 65 | 31,530 | 0 | 0 | 1.5 | 11.84 | 24.82 | 6.14 | 2.86 | 7.64 | 8.41 | |||||
| 08:26 | Trim Market St | 2 | 25.1 | 64 | 57,075 | 0.07 | 0 | 1.24 | 12.13 | 32.29 | 0 | 2.14 | 4.35 | 6.86 | |||||
| 08:26 | Trim Patrick St | 2 | 24.4 | 66 | 36,689 | 0 | 0 | 1.37 | 8.31 | 26.26 | 6.26 | 5.43 | 9.09 | 10 | |||||
| 08:25 | Trim Market St | 2 | 25.1 | 64 | 57,019 | 0.07 | 0 | 1.04 | 11.28 | 12.68 | 0 | 2.14 | 3.84 | 5.54 | |||||
| 08:25 | Trim Patrick St | 1 | 24.4 | 66 | 38,460 | 0.01 | 0 | 1.44 | 13.09 | 24.34 | 6.96 | 6.29 | 10.51 | 11.56 | |||||
| 08:24 | Trim Market St | 2 | 25 | 64 | 56,965 | 0.05 | 0 | 0.99 | 10.51 | 40.41 | 0 | 2.14 | 3.83 | 6.21 | |||||
| 08:24 | Trim Patrick St | 1 | 24.3 | 66 | 38,460 | 0 | 0 | 1.36 | 7.92 | 24.16 | 6.54 | 5.43 | 9.07 | 9.97 | |||||
| 08:23 | Trim Patrick St | 1 | 24.3 | 66 | 38,460 | 0 | 0 | 1.23 | 10.79 | 17.57 | 6.54 | 5.43 | 9.79 | 10.77 | |||||
| 08:22 | Trim Patrick St | 1 | 24.2 | 65 | 38,460 | 0 | 0 | 1.24 | 12.23 | 37.45 | 5.96 | 7.14 | 11.3 | 12.43 | |||||
| 08:21 | Trim Patrick St | 1 | 24.2 | 66 | 38,460 | 0 | 0 | 1.19 | 7.67 | 32.75 | 6.04 | 6.29 | 11.27 | 12.4 | |||||
| 08:20 | Trim Patrick St | 1 | 24.1 | 66 | 38,460 | 0 | 0 | 1.27 | 11.76 | 29.27 | 5.78 | 4.57 | 8.33 | 9.16 | |||||